Terminal Aerodrome Forecast
Issued by NWS Wilmington, OH

Current Version | Previous Version | Graphics & Text | Print | Product List | Glossary Off
Versions: 1 2 3 4 5 6 7 8 9 10 11 12 13 14 15 16 17 18 19 20 21 22 23 24 25

082
FTUS41 KILN 102330
TAFCVG
TAF
KCVG 102330Z 1100/1206 22008KT P6SM SCT040
     FM110300 26008KT P6SM SCT200
     FM110600 VRB03KT P6SM SCT200
     FM111400 19005KT P6SM BKN100
     FM111800 19008G17KT P6SM BKN200
     FM120000 18008KT P6SM BKN200
     FM120300 23010KT P6SM BKN040=

USA.gov is the U.S. government's official web portal to all federal, state and local government web resources and services.